Observations for CRANFIELD, United Kingdom (EGTC)

EGTC 201750Z 21010KT 9999 FEW035 09/06 Q1019
EGTC 201720Z 21013KT 9999 FEW035 10/07 Q1018
EGTC 201650Z 21015KT 9999 FEW030 11/07 Q1018
EGTC 201620Z 21013KT 9999 FEW030 10/07 Q1018
EGTC 201550Z 20014KT 9999 SCT031 10/07 Q1018
EGTC 201520Z 21013KT 9999 FEWE023 SCT031 11/07 Q1018
EGTC 201450Z 21016KT 9999 SCT025 11/07 Q1018
EGTC 201420Z 21016KT 9999 SCT027 11/07 Q1018
EGTC 201350Z 21016KT 9999 SCT025 11/07 Q1018
EGTC 201320Z 21016KT 9999 BKN024 11/07 Q1018
EGTC 201250Z 22018KT 9999 BKN024 11/07 Q1018
EGTC 201220Z 21021KT 9999 BKN023 11/07 Q1018
EGTC 201150Z 21016KT 9999 BKN021 12/08 Q1018
EGTC 201120Z 22016G26KT 9999 BKN020 11/07 Q1018 
EGTC 201050Z 21016KT 9999 SCT017 10/07 Q1018
EGTC 201020Z 21016KT 9999 FEW016 11/07 Q1018
EGTC 200950Z 21017KT 9999 FEW014 10/08 Q1017
EGTC 200920Z 21016KT 9999 FEW012 09/07 Q1017
EGTC 200850Z 21016KT 9999 SCT012 10/08 Q1017
EGTC 200820Z 21016KT 9999 SCT012 09/07 Q1017
EGTC 200750Z 21014KT 9999 SCT016 08/07 Q1017
EGTC 200720Z 21014KT 9999 FEW015 08/07 Q1016